Weather at Nashville International Airport

Public forecast

Using degrees Fahrenheit for public forecast. Weather courtesy of forecast.io.

Current aviation weather report (METAR) for Nashville International Airport

Retrieved 2021/07/31 05:53 UTC (43 minutes ago):

KBNA 310553Z COR 04006KT 7SM BKN040 26/21 A3003 RMK AO2 SLP159 T02560211 10317 20256 403500256 58011

Aviation forecast (TAF) for Nashville International Airport

Retrieved 2021/07/31 06:36 UTC (0 seconds ago):

TAF KBNA 310534Z 3106/0106 01006KT P6SM SCT040 BKN250 TEMPO 3109/3113 4SM BR FM311800 34008KT P6SM BKN060 FM010300 VRB04KT P6SM VCTS BKN060CB